createdAt,value
2022-11-23T00:00:32.908Z,4.43
2022-11-23T00:03:00.187Z,4.80
2022-11-23T00:05:28.618Z,4.00
2022-11-23T00:07:55.655Z,3.83
2022-11-23T00:10:22.764Z,4.65
2022-11-23T00:12:49.436Z,8.13
2022-11-23T00:15:16.213Z,3.33
2022-11-23T00:17:42.964Z,7.05
2022-11-23T00:20:10.091Z,6.65
2022-11-23T00:22:36.794Z,5.32
2022-11-23T00:25:03.706Z,4.47
2022-11-23T00:27:30.475Z,5.68
2022-11-23T00:29:57.160Z,4.70
2022-11-23T00:32:23.844Z,3.35
2022-11-23T00:34:50.582Z,6.55
2022-11-23T00:37:17.255Z,6.28
2022-11-23T00:39:43.949Z,5.53
2022-11-23T00:42:10.631Z,7.47
2022-11-23T00:44:37.295Z,4.93
2022-11-23T00:47:04.040Z,5.97
2022-11-23T00:49:30.964Z,8.50
2022-11-23T00:51:57.839Z,8.27
2022-11-23T00:54:24.512Z,10.77
2022-11-23T00:56:51.204Z,5.25
2022-11-23T00:59:17.899Z,4.05
2022-11-23T01:01:44.683Z,4.55
2022-11-23T01:04:11.762Z,6.50
2022-11-23T01:06:40.298Z,7.53
2022-11-23T01:09:18.910Z,4.82
2022-11-23T01:11:45.856Z,6.93
2022-11-23T01:14:13.180Z,4.07
2022-11-23T01:16:41.146Z,5.82
2022-11-23T01:19:12.396Z,5.53
2022-11-23T01:21:39.534Z,7.93
2022-11-23T01:24:22.426Z,6.30
2022-11-23T01:26:56.040Z,6.63
2022-11-23T01:29:24.134Z,4.15
2022-11-23T01:31:50.872Z,6.00
2022-11-23T01:34:18.158Z,5.18
2022-11-23T01:36:45.259Z,6.25
2022-11-23T01:39:13.280Z,7.85
2022-11-23T01:41:44.106Z,4.63
2022-11-23T01:44:33.694Z,6.70
2022-11-23T01:47:06.977Z,3.97
2022-11-23T01:49:45.196Z,6.47
2022-11-23T01:52:25.094Z,5.10
2022-11-23T01:54:57.171Z,7.13
2022-11-23T01:59:58.010Z,5.38
2022-11-23T02:02:27.278Z,6.43
2022-11-23T02:04:55.090Z,7.10
2022-11-23T02:07:23.919Z,6.68
2022-11-23T02:09:50.820Z,8.27
2022-11-23T02:12:17.811Z,6.32
2022-11-23T02:14:45.954Z,6.40
2022-11-23T02:17:13.324Z,8.20
2022-11-23T02:20:05.474Z,6.70
2022-11-23T02:23:08.601Z,7.07
2022-11-23T02:25:44.103Z,8.93
2022-11-23T02:28:25.627Z,6.22
2022-11-23T02:30:54.624Z,7.40
2022-11-23T02:33:21.632Z,5.95
2022-11-23T02:35:51.751Z,6.20
2022-11-23T02:38:18.917Z,6.15
2022-11-23T02:40:46.052Z,8.23
2022-11-23T02:43:13.040Z,9.13
2022-11-23T02:45:47.835Z,5.82
2022-11-23T02:48:14.526Z,5.72
2022-11-23T02:50:41.372Z,8.25
2022-11-23T02:53:08.219Z,9.35
2022-11-23T02:55:34.947Z,6.78
2022-11-23T02:58:02.712Z,6.47
2022-11-23T03:00:29.673Z,7.55
2022-11-23T03:02:56.451Z,8.75
2022-11-23T03:05:23.146Z,7.32
2022-11-23T03:07:50.030Z,9.23
2022-11-23T03:10:17.255Z,7.60
2022-11-23T03:12:43.959Z,7.18
2022-11-23T03:15:11.244Z,8.80
2022-11-23T03:17:38.008Z,6.43
2022-11-23T03:20:05.468Z,7.63
2022-11-23T03:22:32.176Z,8.90
2022-11-23T03:24:58.870Z,8.25
2022-11-23T03:27:25.637Z,12.55
2022-11-23T03:29:52.344Z,7.25
2022-11-23T03:32:19.052Z,8.82
2022-11-23T03:34:45.775Z,11.15
2022-11-23T03:37:12.511Z,8.65
2022-11-23T03:39:42.858Z,10.10
2022-11-23T03:42:12.541Z,9.38
2022-11-23T03:44:39.226Z,7.78
2022-11-23T03:47:05.926Z,9.80
2022-11-23T03:49:32.756Z,11.82
2022-11-23T03:51:59.637Z,8.88
2022-11-23T03:54:26.340Z,11.82
2022-11-23T03:56:53.149Z,10.05
2022-11-23T03:59:19.853Z,9.93
2022-11-23T04:01:46.556Z,10.50
2022-11-23T04:04:13.268Z,13.30
2022-11-23T04:06:39.964Z,7.78
2022-11-23T04:09:06.687Z,12.20
2022-11-23T04:11:33.367Z,8.13
2022-11-23T04:14:00.109Z,12.10
2022-11-23T04:16:26.805Z,12.82
2022-11-23T04:18:53.507Z,7.97
2022-11-23T04:21:20.227Z,10.55
2022-11-23T04:23:47.311Z,8.48
2022-11-23T04:26:13.995Z,9.63
2022-11-23T04:28:40.679Z,5.18
2022-11-23T04:31:07.357Z,9.88
2022-11-23T04:33:34.075Z,13.55
2022-11-23T04:36:00.762Z,7.32
2022-11-23T04:38:27.458Z,10.75
2022-11-23T04:40:54.269Z,10.27
2022-11-23T04:43:20.961Z,7.15
2022-11-23T04:45:47.638Z,8.98
2022-11-23T04:48:14.372Z,8.90
2022-11-23T04:50:43.711Z,9.05
2022-11-23T04:53:12.394Z,12.65
2022-11-23T04:55:39.693Z,9.43
2022-11-23T04:58:06.456Z,8.50
2022-11-23T05:00:33.268Z,6.45
2022-11-23T05:03:01.355Z,5.88
2022-11-23T05:05:28.326Z,7.55
2022-11-23T05:07:55.494Z,8.63
2022-11-23T05:10:22.187Z,6.88
2022-11-23T05:12:48.865Z,10.25
2022-11-23T05:15:15.596Z,7.88
2022-11-23T05:17:42.683Z,10.88
2022-11-23T05:20:10.237Z,12.10
2022-11-23T05:22:36.986Z,8.68
2022-11-23T05:25:04.556Z,6.82
2022-11-23T05:27:31.252Z,7.07
2022-11-23T05:29:58.077Z,7.22
2022-11-23T05:32:24.838Z,9.13
2022-11-23T05:34:51.584Z,9.23
2022-11-23T05:37:18.270Z,8.93
2022-11-23T06:01:38.907Z,12.63
2022-11-23T06:04:06.660Z,7.32
2022-11-23T06:06:33.484Z,7.13
2022-11-23T06:09:00.244Z,9.18
2022-11-23T06:11:26.937Z,5.88
2022-11-23T06:13:53.653Z,11.93
2022-11-23T06:16:20.409Z,8.57
2022-11-23T06:18:47.118Z,7.47
2022-11-23T06:21:13.805Z,8.82
2022-11-23T06:23:40.504Z,11.35
2022-11-23T06:26:07.224Z,9.95
2022-11-23T06:28:36.075Z,11.55
2022-11-23T06:31:07.258Z,8.88
2022-11-23T06:33:35.549Z,9.77
2022-11-23T06:36:03.750Z,10.40
2022-11-23T06:38:30.513Z,9.38
2022-11-23T06:41:01.090Z,9.77
2022-11-23T06:43:28.853Z,12.35
2022-11-23T06:45:56.235Z,10.10
2022-11-23T06:48:23.533Z,9.10
2022-11-23T06:50:50.450Z,13.13
2022-11-23T06:53:17.148Z,8.95
2022-11-23T06:55:43.995Z,11.05
2022-11-23T06:58:11.516Z,10.82
2022-11-23T07:00:38.281Z,9.35
2022-11-23T07:03:04.977Z,6.03
2022-11-23T07:05:31.690Z,11.20
2022-11-23T07:07:58.363Z,9.55
2022-11-23T07:10:25.785Z,9.10
2022-11-23T07:12:52.532Z,8.65
2022-11-23T07:15:19.231Z,8.75
2022-11-23T07:17:45.955Z,9.55
2022-11-23T07:20:13.270Z,9.10
2022-11-23T07:22:40.136Z,7.10
2022-11-23T07:25:07.261Z,7.78
2022-11-23T07:27:33.991Z,7.35
2022-11-23T07:30:00.702Z,10.05
2022-11-23T07:32:27.474Z,12.02
2022-11-23T07:34:54.513Z,8.32
2022-11-23T07:37:22.091Z,11.50
2022-11-23T07:39:57.248Z,6.13
2022-11-23T07:42:35.579Z,9.48
2022-11-23T07:45:05.488Z,9.43
2022-11-23T07:47:32.634Z,6.72
2022-11-23T07:49:59.500Z,11.70
2022-11-23T07:52:26.236Z,8.18
2022-11-23T07:54:52.981Z,9.77
2022-11-23T07:57:19.696Z,10.40
2022-11-23T07:59:46.379Z,5.22
2022-11-23T08:02:15.447Z,4.88
2022-11-23T08:04:42.320Z,8.38
2022-11-23T08:07:09.128Z,5.63
2022-11-23T08:09:36.065Z,7.47
2022-11-23T08:12:03.134Z,5.97
2022-11-23T08:14:30.427Z,12.23
2022-11-23T08:16:57.591Z,6.85
2022-11-23T08:19:24.411Z,8.55
2022-11-23T08:21:51.430Z,7.90
2022-11-23T08:24:18.179Z,7.30
2022-11-23T08:26:44.876Z,7.78
2022-11-23T08:29:11.692Z,5.57
2022-11-23T08:31:38.402Z,10.23
2022-11-23T08:34:05.232Z,9.88
2022-11-23T08:36:31.924Z,7.07
2022-11-23T08:38:58.637Z,6.50
2022-11-23T08:41:25.484Z,7.20
2022-11-23T08:43:52.191Z,10.60
2022-11-23T08:46:19.523Z,7.85
2022-11-23T08:48:46.314Z,9.48
2022-11-23T08:51:13.085Z,11.13
2022-11-23T08:53:39.861Z,8.95
2022-11-23T08:56:08.193Z,5.95
2022-11-23T08:58:34.921Z,6.35
2022-11-23T09:01:01.662Z,5.80
2022-11-23T09:03:28.357Z,7.90
2022-11-23T09:06:00.065Z,9.70
2022-11-23T09:08:27.199Z,6.20
2022-11-23T09:10:53.939Z,7.55
2022-11-23T09:13:20.756Z,9.98
2022-11-23T09:15:47.455Z,9.35
2022-11-23T09:18:14.349Z,7.78
2022-11-23T09:20:41.085Z,8.52
2022-11-23T09:23:13.784Z,8.13
2022-11-23T09:25:42.936Z,8.20
2022-11-23T09:28:12.396Z,6.20
2022-11-23T09:30:39.097Z,9.45
2022-11-23T09:33:05.814Z,9.27
2022-11-23T09:35:32.611Z,14.23
2022-11-23T09:37:59.595Z,7.93
2022-11-23T09:40:40.281Z,5.53
2022-11-23T09:43:30.219Z,11.15
2022-11-23T09:46:03.501Z,7.18
2022-11-23T09:48:39.071Z,5.38
2022-11-23T09:51:15.065Z,6.55
2022-11-23T09:53:49.362Z,6.40
2022-11-23T09:56:21.064Z,6.80
2022-11-23T09:58:52.323Z,7.13
2022-11-23T10:01:19.232Z,5.18
2022-11-23T10:03:49.204Z,5.40
2022-11-23T10:06:31.552Z,7.30
2022-11-23T10:09:39.253Z,5.05
2022-11-23T10:12:48.310Z,4.28
2022-11-23T10:15:30.982Z,7.38
2022-11-23T10:18:27.153Z,10.75
2022-11-23T10:21:38.439Z,4.85
2022-11-23T10:24:20.466Z,6.18
2022-11-23T10:26:49.814Z,3.67
2022-11-23T10:29:41.397Z,5.88
2022-11-23T10:32:38.239Z,8.70
2022-11-23T10:35:12.072Z,5.53
2022-11-23T10:37:40.514Z,6.05
2022-11-23T10:40:34.160Z,8.25
2022-11-23T10:43:07.813Z,7.13
2022-11-23T10:45:34.537Z,5.25
2022-11-23T10:48:01.286Z,3.42
2022-11-23T10:50:34.684Z,3.38
2022-11-23T10:53:19.698Z,6.97
2022-11-23T10:55:59.042Z,6.00
2022-11-23T10:58:44.804Z,7.03
2022-11-23T11:01:25.292Z,3.53
2022-11-23T11:03:54.929Z,6.07
2022-11-23T11:06:28.511Z,7.82
2022-11-23T11:09:02.631Z,5.57
2022-11-23T11:11:39.770Z,6.93
2022-11-23T11:14:18.689Z,5.70
2022-11-23T11:16:57.932Z,4.35
2022-11-23T11:19:29.988Z,6.63
2022-11-23T11:24:36.941Z,5.88
2022-11-23T11:27:13.623Z,6.53
2022-11-23T11:29:50.400Z,4.78
2022-11-23T11:32:40.076Z,6.18
2022-11-23T11:35:26.037Z,5.70
2022-11-23T11:38:22.902Z,2.92
2022-11-23T11:40:52.356Z,4.82
2022-11-23T11:43:49.155Z,6.22
2022-11-23T11:46:31.126Z,3.20
2022-11-23T11:51:43.849Z,8.80
2022-11-23T11:54:20.052Z,4.72
2022-11-23T11:56:51.340Z,4.28
2022-11-23T11:59:32.986Z,3.78
2022-11-23T12:02:30.102Z,3.80
2022-11-23T12:05:22.397Z,6.13
2022-11-23T12:10:51.018Z,3.55
2022-11-23T12:13:24.184Z,4.90
2022-11-23T12:16:16.459Z,5.00
2022-11-23T12:22:19.788Z,4.53
2022-11-23T12:25:11.407Z,5.05
2022-11-23T12:27:56.620Z,5.78
2022-11-23T12:30:25.970Z,3.15
2022-11-23T12:33:39.672Z,5.03
2022-11-23T12:36:23.640Z,7.55
2022-11-23T12:39:17.098Z,3.67
2022-11-23T12:41:57.439Z,3.33
2022-11-23T12:44:57.168Z,4.03
2022-11-23T12:47:59.662Z,6.10
2022-11-23T12:53:44.726Z,2.38
2022-11-23T12:56:20.191Z,2.75
2022-11-23T12:58:49.878Z,2.20
2022-11-23T13:01:27.836Z,2.30
2022-11-23T13:04:09.814Z,4.93
2022-11-23T13:07:32.812Z,5.75
2022-11-23T13:10:36.029Z,3.20
2022-11-23T13:13:32.686Z,5.85
2022-11-23T13:16:26.144Z,3.33
2022-11-23T13:19:10.835Z,4.35
2022-11-23T13:21:43.588Z,5.57
2022-11-23T13:24:35.264Z,2.88
2022-11-23T13:27:14.482Z,4.55
2022-11-23T13:29:50.211Z,6.50
2022-11-23T13:33:28.579Z,3.95
2022-11-23T13:36:05.209Z,2.65
2022-11-23T13:38:40.265Z,2.08
2022-11-23T13:41:34.787Z,1.90
2022-11-23T13:44:32.695Z,3.85
2022-11-23T13:47:06.023Z,2.78
2022-11-23T13:49:45.624Z,3.72
2022-11-23T13:52:21.725Z,3.28
2022-11-23T13:55:10.510Z,3.67
2022-11-23T13:57:39.263Z,4.72
2022-11-23T14:00:45.371Z,3.08
2022-11-23T14:03:49.437Z,3.45
2022-11-23T14:06:45.569Z,7.80
2022-11-23T14:09:32.597Z,5.93
2022-11-23T14:12:37.849Z,4.88
2022-11-23T14:15:21.644Z,4.35
2022-11-23T14:18:44.172Z,5.00
2022-11-23T14:21:16.660Z,4.25
2022-11-23T14:24:22.232Z,4.88
2022-11-23T14:27:39.472Z,4.15
2022-11-23T14:30:17.082Z,6.60
2022-11-23T14:33:02.065Z,4.97
2022-11-23T14:35:43.748Z,5.65
2022-11-23T14:39:07.898Z,3.80
2022-11-23T14:41:38.208Z,4.82
2022-11-23T14:44:06.304Z,5.88
2022-11-23T14:46:33.236Z,6.72
2022-11-23T14:49:12.632Z,6.70
2022-11-23T14:51:43.838Z,5.28
2022-11-23T14:54:12.297Z,5.93
2022-11-23T14:56:43.845Z,4.32
2022-11-23T14:59:17.692Z,5.80
2022-11-23T15:01:59.241Z,5.20
2022-11-23T15:04:37.394Z,5.47
2022-11-23T15:07:11.161Z,5.45
2022-11-23T15:09:44.843Z,3.22
2022-11-23T15:12:27.433Z,3.67
2022-11-23T15:14:57.584Z,4.07
2022-11-23T15:17:25.040Z,4.55
2022-11-23T15:20:00.524Z,5.53
2022-11-23T15:22:31.020Z,9.07
2022-11-23T15:25:08.206Z,3.15
2022-11-23T15:27:40.636Z,3.50
2022-11-23T15:30:28.758Z,8.00
2022-11-23T15:32:58.534Z,4.25
2022-11-23T15:35:38.199Z,3.15
2022-11-23T15:38:17.727Z,8.80
2022-11-23T15:43:18.786Z,6.55
2022-11-23T15:45:45.570Z,5.63
2022-11-23T15:48:19.760Z,5.38
2022-11-23T15:50:59.051Z,2.75
2022-11-23T15:53:29.899Z,4.28
2022-11-23T15:56:04.865Z,6.20
2022-11-23T15:58:32.705Z,4.95
2022-11-23T16:01:11.458Z,4.72
2022-11-23T16:04:04.912Z,6.03
2022-11-23T16:06:42.883Z,4.10
2022-11-23T16:09:52.822Z,3.40
2022-11-23T16:12:28.504Z,4.10
2022-11-23T16:15:37.743Z,5.72
2022-11-23T16:18:13.736Z,4.55
2022-11-23T16:20:55.926Z,3.50
2022-11-23T16:23:26.237Z,3.20
2022-11-23T16:26:05.146Z,4.25
2022-11-23T16:28:53.920Z,7.90
2022-11-23T16:31:41.055Z,4.18
2022-11-23T16:34:18.692Z,2.60
2022-11-23T16:36:46.002Z,5.35
2022-11-23T16:39:13.080Z,4.45
2022-11-23T16:41:40.223Z,3.75
2022-11-23T16:44:07.029Z,3.47
2022-11-23T16:46:35.229Z,5.38
2022-11-23T16:49:04.686Z,3.53
2022-11-23T16:51:31.370Z,3.53
2022-11-23T16:54:16.073Z,2.83
2022-11-23T16:56:45.260Z,4.55
2022-11-23T16:59:19.154Z,3.92
2022-11-23T17:01:55.548Z,4.85
2022-11-23T17:04:24.583Z,2.60
2022-11-23T17:06:51.460Z,5.18
2022-11-23T17:09:18.220Z,4.68
2022-11-23T17:11:47.509Z,3.80
2022-11-23T17:14:18.970Z,3.13
2022-11-23T17:16:47.047Z,3.20
2022-11-23T17:19:19.803Z,2.70
2022-11-23T17:21:47.141Z,3.47
2022-11-23T17:24:14.516Z,4.82
2022-11-23T17:26:53.036Z,1.83
2022-11-23T17:29:21.499Z,3.47
2022-11-23T17:31:50.314Z,3.75
2022-11-23T17:34:17.926Z,2.50
2022-11-23T17:36:46.933Z,3.08
2022-11-23T17:39:25.363Z,1.95
2022-11-23T17:41:52.154Z,4.55
2022-11-23T17:44:18.988Z,4.45
2022-11-23T17:46:47.430Z,4.38
2022-11-23T17:49:27.382Z,4.55
2022-11-23T17:51:55.642Z,2.78
2022-11-23T17:54:23.577Z,3.78
2022-11-23T17:56:51.546Z,2.95
2022-11-23T17:59:19.310Z,3.90
2022-11-23T18:01:46.077Z,3.42
2022-11-23T18:04:12.901Z,2.25
2022-11-23T18:06:39.729Z,2.65
2022-11-23T18:09:06.486Z,3.75
2022-11-23T18:11:33.546Z,2.58
2022-11-23T18:14:00.275Z,4.32
2022-11-23T18:16:27.086Z,1.80
2022-11-23T18:18:53.942Z,5.82
2022-11-23T18:21:21.251Z,3.95
2022-11-23T18:23:47.963Z,3.63
2022-11-23T18:26:25.930Z,4.45
2022-11-23T18:28:53.873Z,1.38
2022-11-23T18:31:20.852Z,1.90
2022-11-23T18:33:47.988Z,2.13
2022-11-23T18:36:14.820Z,4.00
2022-11-23T18:38:44.732Z,2.05
2022-11-23T18:41:12.750Z,1.80
2022-11-23T18:43:39.445Z,3.75
2022-11-23T18:46:10.350Z,2.97
2022-11-23T18:48:37.787Z,1.65
2022-11-23T18:51:06.250Z,2.17
2022-11-23T18:53:33.668Z,3.35
2022-11-23T18:56:04.683Z,3.03
2022-11-23T18:58:41.859Z,3.03
2022-11-23T19:01:21.852Z,7.47
2022-11-23T19:03:51.807Z,4.43
2022-11-23T19:06:21.998Z,2.00
2022-11-23T19:08:53.430Z,3.78
2022-11-23T19:11:27.479Z,3.63
2022-11-23T19:13:57.407Z,3.60
2022-11-23T19:16:31.277Z,4.90
2022-11-23T19:19:04.617Z,2.72
2022-11-23T19:21:33.909Z,9.55
2022-11-23T19:24:01.670Z,4.28
2022-11-23T19:26:30.074Z,5.40
2022-11-23T19:28:57.941Z,4.38
2022-11-23T19:31:30.530Z,3.80
2022-11-23T19:34:02.624Z,3.70
2022-11-23T19:36:30.914Z,7.10
2022-11-23T19:39:00.313Z,4.63
2022-11-23T19:41:30.790Z,4.50
2022-11-23T19:43:59.618Z,8.55
2022-11-23T19:46:27.344Z,7.72
2022-11-23T19:48:55.747Z,7.22
2022-11-23T19:51:23.561Z,3.53
2022-11-23T19:53:50.987Z,6.55
2022-11-23T19:56:23.967Z,6.93
2022-11-23T19:58:52.654Z,4.43
2022-11-23T20:01:22.907Z,6.82
2022-11-23T20:03:53.338Z,7.40
2022-11-23T20:06:26.971Z,8.40
2022-11-23T20:09:00.428Z,10.50
2022-11-23T20:11:30.376Z,5.72
2022-11-23T20:13:58.364Z,6.53
2022-11-23T20:16:27.684Z,7.60
2022-11-23T20:19:00.655Z,18.92
2022-11-23T20:21:29.601Z,7.85
2022-11-23T20:24:04.394Z,6.40
2022-11-23T20:26:33.709Z,10.15
2022-11-23T20:29:00.538Z,9.73
2022-11-23T20:31:29.794Z,8.70
2022-11-23T20:33:57.549Z,5.40
2022-11-23T20:36:33.060Z,10.10
2022-11-23T20:39:05.297Z,8.55
2022-11-23T20:44:06.866Z,13.27
2022-11-23T20:49:20.771Z,12.95
2022-11-23T20:51:47.606Z,7.68
2022-11-23T20:54:14.320Z,10.75
2022-11-23T20:56:41.003Z,8.50
2022-11-23T20:59:07.711Z,13.85
2022-11-23T21:01:34.576Z,7.65
2022-11-23T21:04:01.430Z,6.28
2022-11-23T21:06:28.454Z,9.18
2022-11-23T21:08:56.316Z,7.28
2022-11-23T21:11:47.184Z,9.73
2022-11-23T21:14:21.462Z,12.98
2022-11-23T21:16:55.671Z,11.02
2022-11-23T21:19:36.680Z,13.98
2022-11-23T21:22:12.982Z,8.50
2022-11-23T21:24:40.869Z,9.68
2022-11-23T21:27:12.127Z,10.57
2022-11-23T21:29:39.148Z,9.97
2022-11-23T21:32:05.988Z,14.70
2022-11-23T21:34:33.070Z,12.75
2022-11-23T21:37:00.246Z,15.52
2022-11-23T21:39:29.848Z,14.18
2022-11-23T21:41:56.532Z,11.50
2022-11-23T21:44:23.287Z,14.25
2022-11-23T21:46:50.391Z,12.48
2022-11-23T21:49:17.248Z,9.00
2022-11-23T21:51:45.507Z,9.45
2022-11-23T21:54:15.817Z,13.75
2022-11-23T21:56:44.670Z,12.15
2022-11-23T21:59:12.435Z,13.10
2022-11-23T22:01:40.209Z,8.88
2022-11-23T22:04:10.614Z,13.30
2022-11-23T22:06:39.003Z,11.80
2022-11-23T22:09:09.237Z,10.07
2022-11-23T22:11:39.341Z,10.02
2022-11-23T22:14:12.782Z,14.30
2022-11-23T22:16:46.063Z,8.27
2022-11-23T22:19:16.151Z,12.18
2022-11-23T22:21:45.065Z,10.13
2022-11-23T22:24:18.323Z,9.85
2022-11-23T22:26:46.042Z,10.70
2022-11-23T22:29:12.929Z,6.60
2022-11-23T22:31:40.146Z,13.55
2022-11-23T22:34:10.671Z,12.98
2022-11-23T22:36:37.399Z,9.75
2022-11-23T22:39:06.384Z,17.60
2022-11-23T22:41:36.463Z,14.55
2022-11-23T22:44:05.633Z,15.38
2022-11-23T22:46:32.401Z,8.23
2022-11-23T22:48:59.447Z,13.13
2022-11-23T22:51:28.433Z,10.68
2022-11-23T22:53:58.362Z,10.25
2022-11-23T22:56:26.353Z,15.55
2022-11-23T22:58:53.483Z,13.30
2022-11-23T23:01:24.249Z,14.98
2022-11-23T23:03:56.508Z,12.18
2022-11-23T23:06:26.568Z,15.10
2022-11-23T23:08:56.749Z,11.07
2022-11-23T23:11:26.379Z,10.38
2022-11-23T23:13:53.569Z,10.80
2022-11-23T23:16:20.323Z,11.80
2022-11-23T23:18:47.212Z,13.75
2022-11-23T23:21:20.067Z,7.07
2022-11-23T23:23:52.232Z,11.82
2022-11-23T23:28:48.740Z,20.73
2022-11-23T23:31:17.237Z,8.70
2022-11-23T23:33:45.692Z,11.00
2022-11-23T23:36:16.432Z,10.82
2022-11-23T23:38:44.090Z,10.98
2022-11-23T23:41:11.976Z,12.45
2022-11-23T23:43:39.195Z,11.80
2022-11-23T23:46:09.962Z,10.43
2022-11-23T23:48:38.874Z,11.73
2022-11-23T23:51:07.868Z,11.80
2022-11-23T23:53:36.257Z,19.40
2022-11-23T23:56:07.583Z,9.05
2022-11-23T23:58:35.310Z,14.75
